SBRJ/SDU METAR and TAF weather

Enter ICAO airport designator
Station Type Date Time Source
SBRJ METAR 2019/06/19 07:00 UTC NOAA

SBRJ 190700Z 35003KT CAVOK 21/21 Q1018


Station Type Date Time Source
SBRJ Decoded METAR 2019/06/19 07:00 UTC NOAA

Rio De Janeiro Aeroporto , Brazil (SBRJ) 22-54S 043-10W
Jun 19, 2019 - 03:00 AM EDT / 2019.06.19 0700 UTC
Wind: from the N (350 degrees) at 3 MPH (3 KT):0
Visibility: greater than 7 mile(s):0
Temperature: 69 F (21 C)
Dew Point: 69 F (21 C)
Relative Humidity: 100%
Pressure (altimeter): 30.06 in. Hg (1018 hPa)
ob: SBRJ 190700Z 35003KT CAVOK 21/21 Q1018
cycle: 7

Station Type Date Time Source
SBRJ TAF 2019/06/19 06:33 UTC NOAA

TAF SBRJ 190300Z 1906/1918 36005KT 9999 FEW020 TN20/1908Z TX28/1916Z PROB30 1909/1912 4000 BR BKN010
BECMG 1915/1917 15005KT FEW025
RMK PHD

Example: see airport list